Time;durP1;ratioP1;P1;durP2;ratioP2;P2;SDS_P1;SDS_P2;PMS_P1;PMS_P2;Temp;Humidity;BMP_temperature;BMP_pressure;BME280_temperature;BME280_humidity;BME280_pressure;Samples;Min_cycle;Max_cycle;Signal;HPM_P1;HPM_P2
2023/07/30 00:03:34;;;;;;;2.28;1.40;;;;;;;20.40;65.27;96391.00;10523357;28;20054;-29
2023/07/30 00:08:34;;;;;;;2.90;1.50;;;;;;;20.36;64.96;96377.50;10537312;28;20028;-30
2023/07/30 00:13:35;;;;;;;1.83;1.63;;;;;;;20.49;68.04;96384.97;10527998;28;20446;-29
2023/07/30 00:18:35;;;;;;;2.50;1.50;;;;;;;20.52;68.72;96380.69;10529045;28;20032;-28
2023/07/30 00:23:35;;;;;;;1.83;1.20;;;;;;;20.55;66.18;96390.78;10511453;28;20064;-29
2023/07/30 00:28:35;;;;;;;0.90;0.90;;;;;;;20.46;65.27;96398.53;10532757;28;20028;-29
2023/07/30 00:33:36;;;;;;;1.17;1.03;;;;;;;20.40;64.57;96405.41;10537337;28;20440;-29
2023/07/30 00:38:37;;;;;;;1.52;0.93;;;;;;;20.37;64.79;96402.94;10534753;28;20028;-29
2023/07/30 00:43:37;;;;;;;1.60;1.30;;;;;;;20.35;64.46;96407.16;10531288;28;20452;-29
2023/07/30 00:48:38;;;;;;;2.63;1.27;;;;;;;20.34;64.51;96404.66;10506767;28;20032;-29
2023/07/30 00:53:39;;;;;;;1.42;1.10;;;;;;;20.33;64.20;96400.44;10527939;28;20427;-29
2023/07/30 00:58:40;;;;;;;2.45;1.10;;;;;;;20.48;67.89;96396.00;10523431;28;20028;-28
2023/07/30 01:03:41;;;;;;;1.35;1.23;;;;;;;20.56;67.90;96389.94;10512794;28;20532;-29
2023/07/30 01:08:41;;;;;;;1.50;1.20;;;;;;;20.53;65.57;96392.53;10510572;28;20182;-29
2023/07/30 01:13:42;;;;;;;1.65;1.20;;;;;;;20.44;65.08;96390.09;10513477;28;20875;-30
2023/07/30 01:18:43;;;;;;;2.20;1.40;;;;;;;20.39;64.17;96394.41;10523175;28;20032;-29
2023/07/30 01:23:43;;;;;;;0.73;0.73;;;;;;;20.37;64.39;96380.03;10532141;28;20028;-29
2023/07/30 01:28:48;;;;;;;1.00;0.90;;;;;;;20.36;64.15;96392.75;10511136;28;20031;-29
2023/07/30 01:33:52;;;;;;;1.38;0.95;;;;;;;20.34;64.07;96399.59;10507630;28;20020;-29
2023/07/30 01:38:53;;;;;;;1.20;0.88;;;;;;;20.33;63.87;96398.72;10534299;28;20047;-29
2023/07/30 01:43:54;;;;;;;1.42;1.30;;;;;;;20.48;67.66;96394.28;10506133;28;20471;-29
2023/07/30 01:48:54;;;;;;;1.67;1.50;;;;;;;20.54;67.80;96381.50;10513379;28;20147;-29
2023/07/30 01:53:54;;;;;;;1.17;0.80;;;;;;;20.53;65.48;96373.88;10531062;28;20027;-29
2023/07/30 01:58:55;;;;;;;0.73;0.70;;;;;;;20.44;64.85;96377.38;10533028;28;20459;-28
2023/07/30 02:03:55;;;;;;;1.27;1.00;;;;;;;20.38;64.14;96381.72;10510528;28;20040;-29
2023/07/30 02:08:55;;;;;;;0.83;0.83;;;;;;;20.36;63.97;96388.50;10501968;28;20332;-29
2023/07/30 02:13:56;;;;;;;0.95;0.90;;;;;;;20.36;64.08;96390.22;10520094;28;20405;-29
2023/07/30 02:18:56;;;;;;;1.20;0.93;;;;;;;20.27;63.67;96392.88;10531502;28;20058;-29
2023/07/30 02:23:57;;;;;;;1.60;0.90;;;;;;;20.30;63.61;96398.78;10514857;28;20290;-29
2023/07/30 02:29:00;;;;;;;1.47;1.30;;;;;;;20.49;67.62;96406.16;10537935;28;20028;-29
2023/07/30 02:34:00;;;;;;;1.02;0.93;;;;;;;20.56;67.65;96400.09;10515642;28;20035;-29
2023/07/30 02:39:00;;;;;;;1.50;1.40;;;;;;;20.53;65.23;96397.63;10532297;28;20401;-29
2023/07/30 02:44:01;;;;;;;1.55;1.13;;;;;;;20.43;64.46;96406.22;10532247;28;20401;-29
2023/07/30 02:49:01;;;;;;;1.10;0.77;;;;;;;20.38;64.05;96407.97;10531438;28;20024;-29
2023/07/30 02:54:06;;;;;;;1.40;1.00;;;;;;;20.37;63.97;96412.25;10542006;28;20038;-29
2023/07/30 02:59:07;;;;;;;1.10;0.90;;;;;;;20.34;63.88;96410.56;10520208;28;20036;-29
2023/07/30 03:04:07;;;;;;;1.15;0.95;;;;;;;20.31;63.87;96404.69;10502716;28;20404;-29
2023/07/30 03:09:08;;;;;;;1.45;0.85;;;;;;;20.33;63.83;96408.91;10530739;28;20406;-29
2023/07/30 03:14:08;;;;;;;1.30;1.20;;;;;;;20.49;67.67;96411.25;10524017;28;20410;-29
2023/07/30 03:19:08;;;;;;;6.07;1.40;;;;;;;20.52;67.57;96408.66;10509606;28;20372;-29
2023/07/30 03:24:09;;;;;;;1.33;1.23;;;;;;;20.55;65.52;96418.78;10530185;28;20050;-29
2023/07/30 03:29:09;;;;;;;0.77;0.75;;;;;;;20.48;64.60;96416.34;10510211;28;20028;-29
2023/07/30 03:34:10;;;;;;;1.23;0.80;;;;;;;20.38;63.91;96405.44;10514336;28;20032;-29
2023/07/30 03:39:10;;;;;;;1.47;0.90;;;;;;;20.37;63.93;96394.44;10530795;28;20218;-29
2023/07/30 03:44:11;;;;;;;0.80;0.80;;;;;;;20.35;63.84;96391.91;10533849;28;20040;-29
2023/07/30 03:49:11;;;;;;;2.60;1.10;;;;;;;20.33;63.61;96400.44;10513128;28;20500;-28
2023/07/30 03:54:12;;;;;;;1.25;0.73;;;;;;;20.33;63.61;96398.72;10533979;28;20286;-29
2023/07/30 03:59:12;;;;;;;1.20;0.90;;;;;;;20.42;65.84;96415.59;10519965;28;20040;-29
2023/07/30 04:04:13;;;;;;;1.57;1.30;;;;;;;20.54;67.47;96412.00;10538106;28;20047;-30
2023/07/30 04:09:13;;;;;;;1.10;1.00;;;;;;;20.56;65.78;96417.91;10519667;28;20040;-29
2023/07/30 04:14:13;;;;;;;0.83;0.80;;;;;;;20.50;64.68;96422.25;10519032;28;20298;-29
2023/07/30 04:19:14;;;;;;;0.93;0.83;;;;;;;20.43;64.04;96433.34;10537429;28;20089;-29
2023/07/30 04:24:14;;;;;;;0.73;0.57;;;;;;;20.38;63.78;96434.25;10537313;28;20106;-29
2023/07/30 04:29:16;;;;;;;1.23;1.13;;;;;;;20.31;63.84;96428.41;10503564;28;20040;-29
2023/07/30 04:34:17;;;;;;;1.13;0.85;;;;;;;20.35;63.35;96447.03;10530998;28;20027;-29
2023/07/30 04:39:17;;;;;;;1.05;0.95;;;;;;;20.34;63.73;96452.97;10512743;28;20028;-28
2023/07/30 04:44:17;;;;;;;0.80;0.80;;;;;;;20.34;63.65;96447.88;10519699;28;20032;-29
2023/07/30 04:49:18;;;;;;;1.30;1.03;;;;;;;20.53;67.27;96452.72;10517042;28;20671;-29
2023/07/30 04:54:18;;;;;;;1.50;0.87;;;;;;;20.56;65.70;96450.97;10518214;28;20436;-29
2023/07/30 04:59:19;;;;;;;1.67;0.70;;;;;;;20.50;64.59;96451.06;10532478;28;20316;-29
2023/07/30 05:04:19;;;;;;;0.95;0.85;;;;;;;20.43;63.88;96456.22;10522001;28;20373;-29
2023/07/30 05:09:20;;;;;;;0.85;0.80;;;;;;;20.39;63.83;96449.50;10528617;28;20124;-29
2023/07/30 05:14:20;;;;;;;1.00;0.90;;;;;;;20.38;63.91;96446.97;10533174;28;20044;-29
2023/07/30 05:19:20;;;;;;;1.00;0.82;;;;;;;20.38;63.78;96457.16;10534743;28;20077;-29
2023/07/30 05:24:21;;;;;;;1.30;1.20;;;;;;;20.38;63.85;96463.09;10534699;28;20024;-29
2023/07/30 05:29:21;;;;;;;1.20;0.65;;;;;;;20.36;64.02;96461.41;10522070;28;20031;-29
2023/07/30 05:34:22;;;;;;;1.50;0.97;;;;;;;20.51;66.78;96468.00;10525508;28;20035;-29
2023/07/30 05:39:22;;;;;;;2.60;1.20;;;;;;;20.60;66.64;96479.75;10524704;28;20304;-29
2023/07/30 05:44:23;;;;;;;1.00;0.90;;;;;;;20.57;64.68;96467.09;10526225;28;20032;-29
2023/07/30 05:49:23;;;;;;;0.67;0.67;;;;;;;20.50;64.95;96468.88;10530651;28;20043;-29
2023/07/30 05:54:23;;;;;;;1.17;1.00;;;;;;;20.45;64.00;96480.78;10525648;28;20352;-28
2023/07/30 05:59:24;;;;;;;1.40;0.80;;;;;;;20.37;63.84;96475.81;10528247;28;20036;-29
2023/07/30 06:04:24;;;;;;;1.43;1.03;;;;;;;20.42;64.06;96489.31;10513483;28;20433;-29
2023/07/30 06:09:24;;;;;;;1.43;1.20;;;;;;;20.42;64.77;96493.56;10511570;28;20051;-29
2023/07/30 06:14:26;;;;;;;1.73;0.80;;;;;;;20.38;63.85;96494.44;10521743;28;20032;-29
2023/07/30 06:19:27;;;;;;;2.55;1.40;;;;;;;20.52;66.49;96510.38;10524393;28;20044;-29
2023/07/30 06:24:30;;;;;;;1.80;1.30;;;;;;;20.61;66.42;96517.91;10525644;28;20074;-29
2023/07/30 06:29:30;;;;;;;1.55;1.00;;;;;;;20.61;65.53;96517.06;10521960;28;20036;-29
2023/07/30 06:34:30;;;;;;;1.53;1.30;;;;;;;20.54;65.50;96525.63;10524674;28;20039;-29
2023/07/30 06:39:31;;;;;;;1.63;1.10;;;;;;;20.50;65.29;96535.00;10530073;28;20044;-29
2023/07/30 06:44:31;;;;;;;1.10;1.00;;;;;;;20.49;64.06;96527.38;10525954;28;20348;-30
2023/07/30 06:49:34;;;;;;;2.10;1.20;;;;;;;20.53;65.59;96532.41;10527763;28;20040;-30
2023/07/30 06:54:34;;;;;;;3.05;1.23;;;;;;;20.53;64.67;96529.88;10527089;28;20536;-29
2023/07/30 06:59:35;;;;;;;3.00;1.30;;;;;;;20.54;65.37;96526.47;10518073;28;20032;-30
2023/07/30 07:04:35;;;;;;;2.88;1.70;;;;;;;20.63;65.34;96540.78;10520001;28;20047;-29
2023/07/30 07:09:36;;;;;;;2.30;1.30;;;;;;;20.68;64.99;96532.25;10529314;28;20464;-30
2023/07/30 07:14:36;;;;;;;2.10;1.40;;;;;;;20.74;64.26;96528.78;10535499;28;20397;-30
2023/07/30 07:19:37;;;;;;;3.67;1.48;;;;;;;20.72;63.97;96540.69;10530081;28;20274;-30
2023/07/30 07:24:37;;;;;;;0.80;0.80;;;;;;;20.61;63.54;96537.41;10533325;28;20441;-30
2023/07/30 07:29:37;;;;;;;3.10;1.30;;;;;;;20.63;63.41;96536.53;10529391;28;20502;-30
2023/07/30 07:34:38;;;;;;;3.80;1.30;;;;;;;20.60;62.99;96551.84;10537879;28;20350;-30
2023/07/30 07:39:38;;;;;;;1.40;1.17;;;;;;;20.62;63.35;96555.19;10539391;28;20771;-31
2023/07/30 07:44:39;;;;;;;2.33;1.50;;;;;;;20.58;63.84;96555.25;10529577;28;20032;-30
2023/07/30 07:49:39;;;;;;;1.80;1.23;;;;;;;20.60;63.96;96553.53;10532877;28;20024;-30
2023/07/30 07:54:41;;;;;;;2.33;1.80;;;;;;;20.73;63.49;96558.47;10530983;28;20486;-29
2023/07/30 07:59:44;;;;;;;1.75;1.50;;;;;;;20.88;61.94;96553.22;10535291;28;20294;-29
2023/07/30 08:04:45;;;;;;;2.28;1.08;;;;;;;20.95;61.02;96561.63;10535707;28;20119;-29
2023/07/30 08:09:45;;;;;;;1.80;1.40;;;;;;;20.84;60.89;96551.56;10536302;28;20412;-29
2023/07/30 08:14:45;;;;;;;1.93;1.53;;;;;;;20.81;61.44;96571.13;10534258;28;20482;-28
2023/07/30 08:19:46;;;;;;;1.87;1.00;;;;;;;20.79;60.97;96563.47;10526996;28;20290;-29
2023/07/30 08:24:46;;;;;;;2.83;1.27;;;;;;;20.72;61.58;96577.13;10535851;28;20024;-29
2023/07/30 08:29:46;;;;;;;3.07;1.57;;;;;;;20.79;61.61;96576.22;10531558;28;20294;-29
2023/07/30 08:34:47;;;;;;;2.73;1.50;;;;;;;20.79;61.63;96573.66;10529399;28;20039;-29
2023/07/30 08:39:47;;;;;;;4.10;1.40;;;;;;;20.70;62.49;96588.19;10527703;28;20361;-29
2023/07/30 08:44:48;;;;;;;2.67;1.42;;;;;;;20.85;61.89;96578.69;10536321;28;20775;-29
2023/07/30 08:49:48;;;;;;;1.50;1.40;;;;;;;20.85;61.69;96583.78;10535557;28;20576;-29
2023/07/30 08:54:49;;;;;;;1.80;1.30;;;;;;;20.95;60.98;96595.56;10534155;28;20410;-29
2023/07/30 09:00:04;;;;;;;3.30;1.45;;;;;;;20.90;60.15;96592.22;10536357;28;20463;-29
2023/07/30 09:05:05;;;;;;;1.83;1.30;;;;;;;20.93;59.53;96589.66;10536031;28;20100;-29
2023/07/30 09:10:06;;;;;;;2.90;1.33;;;;;;;21.00;59.68;96592.97;10535138;28;20081;-28
2023/07/30 09:15:07;;;;;;;1.80;1.20;;;;;;;20.96;59.61;96609.97;10533096;28;20065;-29
2023/07/30 09:20:08;;;;;;;1.52;1.23;;;;;;;20.91;60.26;96619.38;10532549;28;20039;-29
2023/07/30 09:25:11;;;;;;;3.33;1.45;;;;;;;20.89;60.23;96631.25;10533962;28;20036;-29
2023/07/30 09:30:11;;;;;;;1.90;1.30;;;;;;;20.95;60.10;96641.38;10533466;28;20049;-30
2023/07/30 09:35:11;;;;;;;1.23;0.93;;;;;;;20.88;60.77;96634.66;10534457;28;20402;-29
2023/07/30 09:40:14;;;;;;;2.70;1.60;;;;;;;20.88;60.84;96634.66;10523531;28;20429;-29
2023/07/30 09:45:37;;;;;;;1.70;1.30;;;;;;;20.92;60.22;96636.34;10528770;28;20028;-29
2023/07/30 09:50:38;;;;;;;3.63;1.40;;;;;;;20.84;60.69;96638.09;10538248;28;20440;-29
2023/07/30 09:55:38;;;;;;;2.67;1.50;;;;;;;20.76;60.96;96639.88;10527003;28;20084;-29
2023/07/30 10:00:39;;;;;;;1.57;1.20;;;;;;;20.90;59.18;96632.94;10529572;28;20035;-29
2023/07/30 10:05:40;;;;;;;14.52;2.00;;;;;;;20.66;61.25;96628.09;10520361;28;20024;-29
2023/07/30 10:10:41;;;;;;;9.10;1.73;;;;;;;20.96;57.78;96643.06;10524514;28;20039;-29
2023/07/30 10:15:41;;;;;;;6.53;1.70;;;;;;;20.75;60.61;96658.53;10529987;28;20390;-29
2023/07/30 10:20:52;;;;;;;2.20;1.33;;;;;;;20.82;59.75;96632.16;10531937;28;20035;-29
2023/07/30 10:25:55;;;;;;;10.43;2.78;;;;;;;20.75;60.49;96645.81;10528433;28;20028;-29
2023/07/30 10:30:57;;;;;;;10.18;2.53;;;;;;;20.68;60.94;96646.72;10525234;28;20035;-29
2023/07/30 10:35:58;;;;;;;9.43;2.08;;;;;;;20.61;61.39;96649.31;10529214;28;20090;-29
2023/07/30 10:41:05;;;;;;;4.27;1.83;;;;;;;20.96;57.93;96647.31;10528586;28;20077;-30
2023/07/30 10:46:07;;;;;;;5.95;2.05;;;;;;;20.66;60.90;96638.28;10533317;28;20119;-30
2023/07/30 10:51:09;;;;;;;24.23;4.32;;;;;;;20.69;61.30;96634.84;10530096;28;20133;-29
2023/07/30 10:56:10;;;;;;;16.63;2.22;;;;;;;20.80;59.91;96631.31;10527897;28;20028;-28
2023/07/30 11:01:10;;;;;;;8.48;2.00;;;;;;;21.08;57.72;96637.84;10527870;28;20028;-29
2023/07/30 11:06:11;;;;;;;3.95;1.80;;;;;;;21.03;58.32;96619.22;10527819;28;20046;-29
2023/07/30 11:11:11;;;;;;;3.07;1.80;;;;;;;20.87;59.33;96644.88;10535199;28;20378;-29
2023/07/30 11:16:13;;;;;;;5.90;2.27;;;;;;;20.76;60.14;96649.19;10535229;28;20405;-28
2023/07/30 11:21:17;;;;;;;8.75;2.17;;;;;;;20.65;60.66;96636.56;10508953;28;20302;-28
2023/07/30 11:26:19;;;;;;;8.40;2.53;;;;;;;20.64;60.70;96629.78;10521343;28;20074;-29
2023/07/30 11:31:21;;;;;;;9.82;2.00;;;;;;;20.62;60.98;96628.97;10519813;28;20078;-29
2023/07/30 11:36:25;;;;;;;4.70;1.80;;;;;;;20.59;61.07;96640.88;10519179;28;20051;-29
2023/07/30 11:41:25;;;;;;;4.35;2.03;;;;;;;20.52;61.07;96629.94;10529782;28;20044;-29
2023/07/30 11:46:26;;;;;;;4.97;1.88;;;;;;;20.60;61.31;96652.72;10536694;28;20035;-29
2023/07/30 11:51:28;;;;;;;5.47;2.83;;;;;;;20.71;61.26;96661.13;10525811;28;20405;-29
2023/07/30 11:56:30;;;;;;;7.90;2.20;;;;;;;20.76;61.26;96655.13;10532483;28;20285;-29
2023/07/30 12:01:34;;;;;;;5.97;2.03;;;;;;;20.71;60.93;96650.94;10537993;28;20482;-29
2023/07/30 12:06:39;;;;;;;4.13;2.08;;;;;;;20.63;61.33;96642.53;10516061;28;20039;-29
2023/07/30 12:11:54;;;;;;;3.42;1.52;;;;;;;20.62;61.22;96653.59;10535493;28;20028;-29
2023/07/30 12:16:54;;;;;;;4.25;2.25;;;;;;;20.59;61.71;96651.91;10514353;28;20033;-29
2023/07/30 12:21:56;;;;;;;4.88;2.45;;;;;;;20.56;61.66;96646.00;10523860;28;20040;-29
2023/07/30 12:26:56;;;;;;;6.87;2.70;;;;;;;20.56;61.67;96644.28;10524260;28;20047;-29
2023/07/30 12:31:57;;;;;;;6.83;2.83;;;;;;;20.57;61.73;96643.41;10529773;28;20418;-28
2023/07/30 12:36:58;;;;;;;2.27;1.87;;;;;;;20.58;61.99;96639.19;10536176;28;20073;-30
2023/07/30 12:41:58;;;;;;;2.63;2.17;;;;;;;20.74;62.09;96646.69;10527407;28;20328;-29
2023/07/30 12:46:59;;;;;;;4.13;2.83;;;;;;;20.74;61.62;96651.75;10536711;28;20123;-29
2023/07/30 12:51:59;;;;;;;7.13;4.23;;;;;;;20.64;61.63;96665.41;10525190;28;20016;-29
2023/07/30 12:56:59;;;;;;;5.23;3.40;;;;;;;20.62;61.74;96662.03;10535901;28;20573;-29
2023/07/30 13:02:00;;;;;;;5.30;3.47;;;;;;;20.58;61.55;96675.66;10533119;28;20032;-29
2023/07/30 13:07:00;;;;;;;5.67;3.27;;;;;;;20.56;61.55;96672.25;10529794;28;20552;-30
2023/07/30 13:12:00;;;;;;;7.70;3.33;;;;;;;20.59;62.35;96684.13;10530345;28;20016;-29
2023/07/30 13:17:01;;;;;;;6.37;3.50;;;;;;;20.58;63.09;96690.91;10528175;28;20036;-29
2023/07/30 13:22:01;;;;;;;5.47;2.60;;;;;;;20.56;62.88;96690.06;10536461;28;20032;-29
2023/07/30 13:27:02;;;;;;;1.83;1.60;;;;;;;20.75;62.58;96698.38;10526438;28;20029;-29
2023/07/30 13:32:02;;;;;;;3.50;2.25;;;;;;;20.79;62.53;96695.81;10533181;28;20776;-30
2023/07/30 13:37:03;;;;;;;4.07;2.60;;;;;;;20.72;62.67;96711.97;10535062;28;20047;-29
2023/07/30 13:42:04;;;;;;;4.35;2.22;;;;;;;20.66;62.75;96714.59;10530656;28;20039;-29
2023/07/30 13:47:05;;;;;;;4.35;2.75;;;;;;;20.61;62.83;96706.16;10533773;28;20039;-29
2023/07/30 13:52:05;;;;;;;3.65;2.20;;;;;;;20.62;62.80;96720.56;10534211;28;20081;-29
2023/07/30 13:57:06;;;;;;;4.65;2.10;;;;;;;20.61;62.93;96723.97;10526129;28;20035;-29
2023/07/30 14:02:07;;;;;;;3.53;2.35;;;;;;;20.60;62.77;96724.81;10538176;28;20036;-29
2023/07/30 14:07:07;;;;;;;4.00;2.33;;;;;;;20.58;62.84;96736.72;10533710;28;20039;-29
2023/07/30 14:12:08;;;;;;;2.35;1.85;;;;;;;20.68;63.14;96738.31;10528867;28;20032;-29
2023/07/30 14:17:08;;;;;;;3.28;1.83;;;;;;;20.80;62.90;96733.09;10517985;28;20077;-29
2023/07/30 14:22:08;;;;;;;2.70;2.27;;;;;;;20.79;62.43;96726.34;10536157;28;20031;-29
2023/07/30 14:27:09;;;;;;;2.43;2.00;;;;;;;20.72;62.10;96724.69;10531448;28;20035;-29
2023/07/30 14:32:09;;;;;;;2.83;1.80;;;;;;;20.66;62.54;96734.94;10531944;28;20296;-29
2023/07/30 14:37:09;;;;;;;2.87;1.93;;;;;;;20.65;62.62;96728.16;10527280;28;20654;-29
2023/07/30 14:42:10;;;;;;;3.30;1.67;;;;;;;20.63;62.34;96740.03;10525513;28;20521;-29
2023/07/30 14:47:11;;;;;;;2.03;1.83;;;;;;;20.57;62.69;96727.38;10526635;28;20600;-29
2023/07/30 14:52:12;;;;;;;3.05;1.75;;;;;;;20.61;63.02;96734.13;10518052;28;20135;-29
2023/07/30 14:57:12;;;;;;;1.67;1.47;;;;;;;20.61;62.44;96748.53;10530889;28;20042;-29
2023/07/30 15:02:13;;;;;;;2.53;1.80;;;;;;;20.73;63.38;96751.00;10518444;28;20525;-29
2023/07/30 15:07:13;;;;;;;2.08;1.48;;;;;;;20.82;63.21;96746.66;10530778;28;20040;-29
2023/07/30 15:12:14;;;;;;;2.47;1.57;;;;;;;20.80;62.59;96752.63;10517020;28;20040;-29
2023/07/30 15:17:14;;;;;;;2.10;1.67;;;;;;;20.69;62.44;96750.19;10520178;28;20063;-29
2023/07/30 15:22:14;;;;;;;1.63;1.53;;;;;;;20.64;62.34;96741.72;10521722;28;20036;-29
2023/07/30 15:27:15;;;;;;;2.13;1.50;;;;;;;20.63;62.38;96737.50;10529393;28;20401;-29
2023/07/30 15:32:15;;;;;;;1.80;1.50;;;;;;;20.60;62.56;96729.91;10529620;28;20486;-29
2023/07/30 15:37:15;;;;;;;1.83;1.33;;;;;;;20.62;62.63;96735.81;10541115;28;20036;-29
2023/07/30 15:42:16;;;;;;;1.73;1.35;;;;;;;20.56;62.43;96732.47;10534976;28;20378;-29
2023/07/30 15:47:17;;;;;;;1.40;1.30;;;;;;;20.61;62.52;96733.28;10536230;28;20036;-29
2023/07/30 15:52:17;;;;;;;1.47;1.17;;;;;;;20.78;63.57;96739.06;10539246;28;20114;-30
2023/07/30 15:57:18;;;;;;;2.20;1.47;;;;;;;20.84;63.36;96734.78;10529348;28;20027;-29
2023/07/30 16:02:18;;;;;;;1.50;1.40;;;;;;;20.77;62.59;96733.16;10543808;28;20286;-29
2023/07/30 16:07:18;;;;;;;1.50;1.33;;;;;;;20.68;62.54;96743.41;10544749;28;20041;-28
2023/07/30 16:12:19;;;;;;;1.57;1.23;;;;;;;20.64;62.58;96736.63;10534317;28;20735;-29
2023/07/30 16:17:19;;;;;;;6.90;1.60;;;;;;;20.61;62.95;96740.91;10535466;28;20277;-29
2023/07/30 16:22:20;;;;;;;1.95;1.25;;;;;;;20.61;62.43;96741.75;10533372;28;20086;-29
2023/07/30 16:27:20;;;;;;;1.77;1.48;;;;;;;20.60;62.38;96740.06;10536860;28;20043;-29
2023/07/30 16:32:23;;;;;;;2.10;1.30;;;;;;;20.60;62.57;96740.06;10529201;28;20405;-29
2023/07/30 16:37:23;;;;;;;10.02;1.67;;;;;;;20.64;63.39;96740.91;10533013;28;20036;-30
2023/07/30 16:42:24;;;;;;;2.87;1.50;;;;;;;20.80;63.81;96743.28;10536791;28;20043;-30
2023/07/30 16:47:24;;;;;;;3.77;1.50;;;;;;;20.83;63.08;96737.34;10534219;28;20428;-29
2023/07/30 16:52:24;;;;;;;2.83;1.40;;;;;;;20.67;62.45;96736.63;10529799;28;20058;-29
2023/07/30 16:57:25;;;;;;;1.60;1.30;;;;;;;20.65;62.32;96745.94;10534725;28;20039;-31
2023/07/30 17:02:25;;;;;;;2.03;1.60;;;;;;;20.62;62.44;96743.44;10529543;28;20036;-29
2023/07/30 17:07:26;;;;;;;2.40;1.40;;;;;;;20.46;62.38;96725.78;10529455;28;20047;-29
2023/07/30 17:12:26;;;;;;;1.95;1.27;;;;;;;20.60;62.16;96765.53;10522749;28;20317;-29
2023/07/30 17:17:26;;;;;;;4.73;1.33;;;;;;;20.58;62.31;96762.16;10522222;28;20051;-30
2023/07/30 17:22:27;;;;;;;1.20;0.90;;;;;;;20.58;62.34;96756.19;10529361;28;20028;-29
2023/07/30 17:27:27;;;;;;;4.70;1.13;;;;;;;20.72;63.38;96765.41;10526868;28;20032;-29
2023/07/30 17:32:27;;;;;;;6.73;1.83;;;;;;;20.83;64.23;96771.28;10524155;28;20286;-29
2023/07/30 17:37:30;;;;;;;3.28;1.40;;;;;;;20.80;63.18;96773.81;10525317;28;20081;-29
2023/07/30 17:42:31;;;;;;;1.42;1.23;;;;;;;20.71;62.58;96768.00;10526909;28;20028;-29
2023/07/30 17:47:31;;;;;;;3.97;1.27;;;;;;;20.65;62.48;96771.41;10529770;28;20043;-29
2023/07/30 17:52:31;;;;;;;1.77;1.03;;;;;;;20.62;62.25;96775.69;10523697;28;20028;-29
2023/07/30 17:57:32;;;;;;;1.77;1.47;;;;;;;20.59;62.21;96789.28;10527954;28;20791;-29
2023/07/30 18:02:33;;;;;;;3.17;1.23;;;;;;;20.59;62.46;96796.91;10523836;28;20706;-29
2023/07/30 18:07:36;;;;;;;2.35;1.30;;;;;;;20.59;62.35;96789.28;10512869;28;20032;-29
2023/07/30 18:12:36;;;;;;;1.48;1.38;;;;;;;20.58;62.37;96786.72;10537329;28;20031;-29
2023/07/30 18:17:36;;;;;;;3.93;1.70;;;;;;;20.72;63.08;96785.75;10541661;28;20020;-29
2023/07/30 18:22:37;;;;;;;1.73;1.42;;;;;;;20.83;62.78;96801.81;10524928;28;20297;-29
2023/07/30 18:27:37;;;;;;;3.60;1.73;;;;;;;20.78;62.27;96808.63;10526412;28;20036;-30
2023/07/30 18:32:38;;;;;;;0.87;0.80;;;;;;;20.69;61.84;96793.44;10526948;28;20347;-28
2023/07/30 18:37:38;;;;;;;2.23;0.97;;;;;;;20.63;61.85;96796.00;10525538;28;20118;-29
2023/07/30 18:42:39;;;;;;;1.58;0.98;;;;;;;20.63;61.94;96790.09;10520447;28;20040;-30
2023/07/30 18:47:39;;;;;;;2.20;1.02;;;;;;;20.60;62.07;96796.03;10524890;28;20032;-29
2023/07/30 18:52:40;;;;;;;2.15;1.10;;;;;;;20.59;61.97;96794.34;10526923;28;20024;-28
2023/07/30 18:57:40;;;;;;;1.87;1.23;;;;;;;20.75;61.31;96805.25;10528412;28;20036;-29
2023/07/30 19:02:40;;;;;;;1.57;1.10;;;;;;;20.84;61.80;96806.03;10522070;28;20294;-29
2023/07/30 19:07:41;;;;;;;2.53;1.53;;;;;;;20.80;61.78;96809.44;10532335;28;20367;-29
2023/07/30 19:12:41;;;;;;;2.20;1.50;;;;;;;20.69;61.73;96816.31;10541393;28;20714;-30
2023/07/30 19:17:41;;;;;;;1.77;0.70;;;;;;;20.65;61.78;96829.91;10537869;28;20450;-29
2023/07/30 19:22:42;;;;;;;3.60;0.93;;;;;;;20.61;61.92;96823.16;10535541;28;20316;-29
2023/07/30 19:27:42;;;;;;;1.50;1.03;;;;;;;20.60;61.73;96831.66;10535561;28;20036;-29
2023/07/30 19:32:43;;;;;;;1.60;1.23;;;;;;;20.59;61.74;96840.16;10534347;28;20039;-29
2023/07/30 19:37:44;;;;;;;1.25;1.08;;;;;;;20.57;61.92;96839.28;10526324;28;20047;-29
2023/07/30 19:42:44;;;;;;;5.10;1.10;;;;;;;20.57;62.11;96835.91;10538308;28;20024;-29
2023/07/30 19:47:45;;;;;;;5.60;1.90;;;;;;;20.76;61.89;96843.44;10537995;28;20039;-29
2023/07/30 19:52:45;;;;;;;2.93;1.47;;;;;;;20.82;61.61;96838.28;10528423;28;20047;-29
2023/07/30 19:57:46;;;;;;;2.42;1.35;;;;;;;20.75;61.17;96841.75;10533698;28;20131;-29
2023/07/30 20:02:46;;;;;;;2.63;1.27;;;;;;;20.66;61.54;96846.88;10534509;28;20040;-29
2023/07/30 20:07:47;;;;;;;1.60;0.90;;;;;;;20.63;61.51;96849.44;10530590;28;20031;-28
2023/07/30 20:12:47;;;;;;;2.03;0.93;;;;;;;20.61;61.28;96850.28;10524753;28;20063;-30
2023/07/30 20:17:47;;;;;;;1.50;0.90;;;;;;;20.59;61.48;96846.91;10524314;28;20324;-29
2023/07/30 20:22:48;;;;;;;2.00;1.17;;;;;;;20.58;61.69;96841.00;10530984;28;20032;-29
2023/07/30 20:27:48;;;;;;;2.07;1.10;;;;;;;20.58;61.63;96842.69;10535693;28;20040;-28
2023/07/30 20:32:48;;;;;;;5.33;3.07;;;;;;;20.59;61.37;96835.06;10529182;28;20500;-29
2023/07/30 20:37:51;;;;;;;3.07;1.30;;;;;;;20.76;61.19;96838.34;10532004;28;20024;-29
2023/07/30 20:42:52;;;;;;;5.15;2.20;;;;;;;20.84;61.43;96848.44;10535647;28;20036;-29
2023/07/30 20:47:53;;;;;;;3.28;1.33;;;;;;;20.76;61.24;96842.56;10540147;28;20410;-29
2023/07/30 20:52:54;;;;;;;2.08;1.00;;;;;;;20.40;60.36;96838.53;10535466;28;20052;-29
2023/07/30 20:57:54;;;;;;;3.27;1.30;;;;;;;19.66;59.54;96841.41;10542065;28;20139;-29
2023/07/30 21:02:55;;;;;;;4.55;1.40;;;;;;;19.46;59.84;96850.75;10549628;28;20031;-29
2023/07/30 21:07:55;;;;;;;4.77;1.20;;;;;;;19.33;60.12;96841.47;10549016;28;20027;-29
2023/07/30 21:12:55;;;;;;;4.77;1.37;;;;;;;19.25;60.20;96845.72;10543166;28;20115;-29
2023/07/30 21:17:56;;;;;;;2.67;1.50;;;;;;;19.12;60.43;96836.38;10535316;28;20032;-28
2023/07/30 21:22:56;;;;;;;3.67;1.73;;;;;;;19.07;60.28;96843.13;10534993;28;20028;-29
2023/07/30 21:27:56;;;;;;;2.83;1.33;;;;;;;19.08;59.96;96842.31;10534634;28;20274;-29
2023/07/30 21:32:58;;;;;;;5.50;1.63;;;;;;;19.09;60.52;96844.00;10531795;28;20217;-29
2023/07/30 21:37:58;;;;;;;4.25;1.35;;;;;;;19.03;60.48;96844.84;10525147;28;20053;-29
2023/07/30 21:42:58;;;;;;;3.03;1.40;;;;;;;18.98;60.52;96838.91;10534834;28;20057;-29
2023/07/30 21:47:59;;;;;;;7.00;1.57;;;;;;;18.93;60.60;96852.44;10534809;28;20036;-29
2023/07/30 21:52:59;;;;;;;3.83;1.37;;;;;;;18.86;60.44;96846.53;10528923;28;20090;-29
2023/07/30 21:57:59;;;;;;;3.33;1.40;;;;;;;18.86;60.46;96851.63;10543049;28;20875;-29
2023/07/30 22:03:00;;;;;;;8.93;1.90;;;;;;;18.79;60.45;96839.75;10534092;28;20081;-28
2023/07/30 22:08:00;;;;;;;2.33;1.40;;;;;;;18.72;60.79;96854.97;10533543;28;20036;-28
2023/07/30 22:13:00;;;;;;;3.60;1.73;;;;;;;18.72;60.88;96857.50;10527243;28;20047;-29
2023/07/30 22:18:01;;;;;;;3.57;2.10;;;;;;;18.68;60.76;96851.56;10532558;28;20027;-29
2023/07/30 22:23:02;;;;;;;3.00;1.20;;;;;;;18.65;60.81;96860.88;10520253;28;20036;-28
2023/07/30 22:28:02;;;;;;;3.42;1.30;;;;;;;18.62;60.85;96853.25;10532962;28;20644;-29
2023/07/30 22:33:05;;;;;;;5.28;1.30;;;;;;;18.60;60.68;96870.16;10531899;28;20048;-29
2023/07/30 22:38:05;;;;;;;4.07;1.45;;;;;;;18.56;61.19;96858.31;10525548;28;20031;-29
2023/07/30 22:43:05;;;;;;;3.30;1.40;;;;;;;18.55;61.05;96865.09;10532070;28;20040;-29
2023/07/30 22:48:06;;;;;;;5.53;2.00;;;;;;;18.52;61.06;96874.38;10518701;28;20453;-29
2023/07/30 22:53:06;;;;;;;5.80;2.17;;;;;;;18.46;61.30;96874.34;10532503;28;20028;-29
2023/07/30 22:58:07;;;;;;;6.40;1.80;;;;;;;18.45;61.41;96878.59;10531694;28;20039;-29
2023/07/30 23:03:08;;;;;;;8.23;1.80;;;;;;;18.47;61.29;96881.13;10530841;28;20322;-29
2023/07/30 23:08:08;;;;;;;3.50;1.50;;;;;;;18.48;61.34;96872.66;10530594;28;20118;-29
2023/07/30 23:13:08;;;;;;;4.03;1.40;;;;;;;18.48;61.46;96862.53;10532041;28;20566;-29
2023/07/30 23:18:09;;;;;;;2.10;1.30;;;;;;;18.49;61.64;96844.78;10528418;28;20105;-29